Time;durP1;ratioP1;P1;durP2;ratioP2;P2;SDS_P1;SDS_P2;PMS_P1;PMS_P2;Temp;Humidity;BMP_temperature;BMP_pressure;BME280_temperature;BME280_humidity;BME280_pressure;Samples;Min_cycle;Max_cycle;Signal;HPM_P1;HPM_P2
2021/12/17 00:07:25;;;;;;;;;24.75;23.00;;;;;-146.25;100.00;57879.81;5071991;27;45506;-72
2021/12/17 00:09:53;;;;;;;;;21.00;20.25;;;;;-146.25;100.00;57879.81;5077236;28;46234;-71
2021/12/17 00:12:21;;;;;;;;;23.50;19.00;;;;;-146.25;100.00;57879.81;5077095;28;45720;-72
2021/12/17 00:14:49;;;;;;;;;20.00;19.75;;;;;-146.25;100.00;57879.81;5066142;27;45473;-72
2021/12/17 00:17:21;;;;;;;;;24.00;19.50;;;;;-146.25;100.00;57879.81;5074513;28;45643;-72
2021/12/17 00:52:24;;;;;;;;;23.00;22.75;;;;;-146.25;100.00;57879.81;5075150;28;45408;-72
2021/12/17 00:54:49;;;;;;;;;25.00;23.25;;;;;-146.25;100.00;57879.81;5073466;28;45444;-72
2021/12/17 00:57:22;;;;;;;;;28.00;25.50;;;;;-146.25;100.00;57879.81;5065698;28;45365;-72
2021/12/17 00:59:50;;;;;;;;;26.75;23.75;;;;;-146.25;100.00;57879.81;5076850;27;45419;-71
2021/12/17 01:02:21;;;;;;;;;25.75;21.50;;;;;-146.25;100.00;57879.81;5073790;28;45659;-72
2021/12/17 01:04:54;;;;;;;;;23.50;20.75;;;;;-146.25;100.00;57879.81;5076398;28;45325;-72
2021/12/17 01:07:22;;;;;;;;;24.00;21.75;;;;;-146.25;100.00;57879.81;5074830;28;45601;-72
2021/12/17 01:09:48;;;;;;;;;30.25;26.25;;;;;-146.25;100.00;57879.81;5076416;28;45404;-72
2021/12/17 01:12:16;;;;;;;;;36.75;31.00;;;;;-146.25;100.00;57879.81;5076205;27;46214;-71
2021/12/17 01:14:42;;;;;;;;;35.75;34.50;;;;;-146.25;100.00;57879.81;5064708;28;45572;-72
2021/12/17 01:17:09;;;;;;;;;33.75;30.75;;;;;-146.25;100.00;57879.81;5066910;28;45486;-71
2021/12/17 01:25:00;;;;;;;;;14.00;12.50;;;;;-146.25;100.00;57879.81;5069756;28;45421;-71
2021/12/17 01:35:43;;;;;;;;;15.75;14.00;;;;;-146.25;100.00;57879.81;5068364;28;45511;-72
2021/12/17 01:43:50;;;;;;;;;8.50;8.00;;;;;-146.25;100.00;57879.81;5072294;28;45815;-71
2021/12/17 01:46:21;;;;;;;;;9.00;9.00;;;;;-146.25;100.00;57879.81;5073319;28;45365;-71
2021/12/17 01:55:47;;;;;;;;;11.00;10.50;;;;;-146.25;100.00;57879.81;5072933;28;45475;-71
2021/12/17 02:00:08;;;;;;;;;13.50;12.00;;;;;-146.25;100.00;57879.81;5075623;27;45445;-71
2021/12/17 02:02:42;;;;;;;;;10.50;10.00;;;;;-146.25;100.00;57879.81;5075989;28;45860;-71
2021/12/17 02:05:09;;;;;;;;;12.75;12.75;;;;;-146.25;100.00;57879.81;5069850;28;46059;-72
2021/12/17 02:07:35;;;;;;;;;13.00;11.25;;;;;-146.25;100.00;57879.81;5088681;27;45668;-72
2021/12/17 02:12:58;;;;;;;;;11.50;9.75;;;;;-146.25;100.00;57879.81;5075663;27;45509;-72
2021/12/17 02:31:32;;;;;;;;;13.75;12.50;;;;;-146.25;100.00;57879.81;5075500;28;45662;-72
2021/12/17 02:34:02;;;;;;;;;14.00;13.75;;;;;-146.25;100.00;57879.81;5072772;28;45479;-72
2021/12/17 02:36:32;;;;;;;;;24.75;19.00;;;;;-146.25;100.00;57879.81;5076270;28;46288;-72
2021/12/17 02:47:15;;;;;;;;;14.00;13.50;;;;;-146.25;100.00;57879.81;5076522;28;45893;-72
2021/12/17 02:49:44;;;;;;;;;12.75;11.75;;;;;-146.25;100.00;57879.81;5076666;27;45519;-73
2021/12/17 02:52:09;;;;;;;;;9.00;9.00;;;;;-146.25;100.00;57879.81;5076555;27;45502;-73
2021/12/17 02:54:36;;;;;;;;;9.75;8.50;;;;;-146.25;100.00;57879.81;5077144;28;45312;-72
2021/12/17 02:57:04;;;;;;;;;9.25;8.00;;;;;-146.25;100.00;57879.81;5076982;27;45456;-72
2021/12/17 02:59:33;;;;;;;;;7.25;7.25;;;;;-146.25;100.00;57879.81;5076670;27;45416;-72
2021/12/17 03:01:59;;;;;;;;;4.25;3.75;;;;;-146.25;100.00;57879.81;5076731;27;45552;-72
2021/12/17 03:04:27;;;;;;;;;2.25;2.25;;;;;-146.25;100.00;57879.81;5079964;27;45417;-72
2021/12/17 03:06:54;;;;;;;;;4.00;2.00;;;;;-146.25;100.00;57879.81;5079935;28;46171;-72
2021/12/17 03:09:29;;;;;;;;;2.75;2.00;;;;;-146.25;100.00;57879.81;5080068;27;45451;-72
2021/12/17 03:11:55;;;;;;;;;4.75;3.75;;;;;-146.25;100.00;57879.81;5080129;28;45441;-72
2021/12/17 03:14:20;;;;;;;;;4.25;4.00;;;;;-146.25;100.00;57879.81;5080155;28;45424;-72
2021/12/17 03:16:58;;;;;;;;;7.25;7.25;;;;;-146.25;100.00;57879.81;5079810;28;45394;-72
2021/12/17 03:24:52;;;;;;;;;5.00;5.00;;;;;-146.25;100.00;57879.81;5079955;28;45448;-72
2021/12/17 03:27:17;;;;;;;;;6.50;4.75;;;;;-146.25;100.00;57879.81;5079440;28;45572;-72
2021/12/17 03:29:43;;;;;;;;;4.00;2.00;;;;;-146.25;100.00;57879.81;5079686;27;45436;-73
2021/12/17 03:32:08;;;;;;;;;5.75;5.50;;;;;-146.25;100.00;57879.81;5079880;28;45255;-73
2021/12/17 03:34:34;;;;;;;;;6.50;6.50;;;;;-146.25;100.00;57879.81;5080252;28;45297;-73
2021/12/17 03:37:00;;;;;;;;;10.50;9.75;;;;;-146.25;100.00;57879.81;5079257;27;45462;-73
2021/12/17 03:39:30;;;;;;;;;8.75;8.75;;;;;-146.25;100.00;57879.81;5079429;28;45216;-72
2021/12/17 03:41:56;;;;;;;;;11.00;9.00;;;;;-146.25;100.00;57879.81;5079468;27;45567;-73
2021/12/17 03:44:22;;;;;;;;;6.25;6.00;;;;;-146.25;100.00;57879.81;5079536;27;45549;-73
2021/12/17 03:46:51;;;;;;;;;5.75;5.50;;;;;-146.25;100.00;57879.81;5079281;27;45576;-72
2021/12/17 03:49:17;;;;;;;;;10.00;8.00;;;;;-146.25;100.00;57879.81;5079562;27;45421;-72
2021/12/17 03:54:36;;;;;;;;;83.33;66.00;;;;;-146.25;100.00;57879.81;5077048;27;45601;-73
2021/12/17 03:57:04;;;;;;;;;51.00;44.00;;;;;-146.25;100.00;57879.81;5078991;28;45803;-73
2021/12/17 03:59:30;;;;;;;;;26.50;25.25;;;;;-146.25;100.00;57879.81;5079379;27;45902;-73
2021/12/17 04:01:55;;;;;;;;;14.00;13.00;;;;;-146.25;100.00;57879.81;5079268;28;45309;-73
2021/12/17 04:04:21;;;;;;;;;17.50;15.25;;;;;-146.25;100.00;57879.81;5079253;28;45483;-72
2021/12/17 04:06:47;;;;;;;;;14.00;14.00;;;;;-146.25;100.00;57879.81;5078955;28;45403;-73
2021/12/17 04:09:13;;;;;;;;;17.00;14.00;;;;;-146.25;100.00;57879.81;5078976;27;45566;-73
2021/12/17 04:11:38;;;;;;;;;21.00;20.50;;;;;-146.25;100.00;57879.81;5079459;28;45480;-72
2021/12/17 04:14:04;;;;;;;;;23.50;23.50;;;;;-146.25;100.00;57879.81;5077221;28;45561;-72
2021/12/17 04:16:32;;;;;;;;;18.00;17.25;;;;;-146.25;100.00;57879.81;5078503;27;45332;-72
2021/12/17 04:18:59;;;;;;;;;18.75;17.00;;;;;-146.25;100.00;57879.81;5078929;27;45531;-73
2021/12/17 04:21:26;;;;;;;;;6.00;6.00;;;;;-146.25;100.00;57879.81;5078916;28;45497;-72
2021/12/17 04:23:54;;;;;;;;;10.00;9.00;;;;;-146.25;100.00;57879.81;5079069;27;45472;-73
2021/12/17 04:26:21;;;;;;;;;9.75;7.75;;;;;-146.25;100.00;57879.81;5078495;27;45430;-73
2021/12/17 04:28:50;;;;;;;;;5.00;4.00;;;;;-146.25;100.00;57879.81;5078568;27;45259;-73
2021/12/17 04:31:19;;;;;;;;;5.75;5.00;;;;;-146.25;100.00;57879.81;5078656;27;45380;-73
2021/12/17 04:33:44;;;;;;;;;7.50;5.50;;;;;-146.25;100.00;57879.81;5078673;28;45466;-73
2021/12/17 04:36:15;;;;;;;;;4.50;4.50;;;;;-146.25;100.00;57879.81;5078517;27;45473;-72
2021/12/17 04:38:41;;;;;;;;;5.25;5.00;;;;;-146.25;100.00;57879.81;5078652;27;45305;-73
2021/12/17 04:44:18;;;;;;;;;6.00;5.25;;;;;-146.25;100.00;57879.81;5078570;28;45400;-72
2021/12/17 04:57:33;;;;;;;;;5.00;5.00;;;;;-146.25;100.00;57879.81;5078093;28;45531;-72
2021/12/17 05:00:04;;;;;;;;;5.00;5.00;;;;;-146.25;100.00;57879.81;5078182;28;45519;-73
2021/12/17 05:02:34;;;;;;;;;5.50;5.25;;;;;-146.25;100.00;57879.81;5078220;27;45455;-73
2021/12/17 05:05:05;;;;;;;;;5.75;5.00;;;;;-146.25;100.00;57879.81;5078413;27;45432;-73
2021/12/17 05:07:32;;;;;;;;;5.75;5.75;;;;;-146.25;100.00;57879.81;5078015;28;46212;-73
2021/12/17 05:10:12;;;;;;;;;6.00;5.50;;;;;-146.25;100.00;57879.81;5078094;27;45450;-72
2021/12/17 05:20:51;;;;;;;;;3.75;2.00;;;;;-146.25;100.00;57879.81;5077950;27;45289;-73
2021/12/17 05:23:42;;;;;;;;;11.00;10.00;;;;;-146.25;100.00;57879.81;5078070;27;45362;-72
2021/12/17 05:26:13;;;;;;;;;10.75;10.00;;;;;-146.25;100.00;57879.81;5077425;28;45456;-73
2021/12/17 05:28:40;;;;;;;;;18.50;17.00;;;;;-146.25;100.00;57879.81;5077705;27;46116;-72
2021/12/17 05:31:06;;;;;;;;;12.50;11.00;;;;;-146.25;100.00;57879.81;5077949;27;45845;-72
2021/12/17 05:33:31;;;;;;;;;5.00;4.50;;;;;-146.25;100.00;57879.81;5077733;27;45721;-72
2021/12/17 05:35:57;;;;;;;;;5.75;5.00;;;;;-146.25;100.00;57879.81;5078335;28;45317;-72
2021/12/17 05:38:25;;;;;;;;;9.00;8.75;;;;;-146.25;100.00;57879.81;5077434;28;45373;-73
2021/12/17 05:40:51;;;;;;;;;2.00;1.00;;;;;-146.25;100.00;57879.81;5077583;27;45625;-72
2021/12/17 05:43:17;;;;;;;;;4.00;2.00;;;;;-146.25;100.00;57879.81;5077771;27;45441;-72
2021/12/17 05:46:04;;;;;;;;;4.75;4.00;;;;;-146.25;100.00;57879.81;5078728;27;45456;-74
2021/12/17 05:48:30;;;;;;;;;2.00;2.00;;;;;-146.25;100.00;57879.81;5077452;27;46095;-72
2021/12/17 05:50:59;;;;;;;;;2.00;2.00;;;;;-146.25;100.00;57879.81;5077281;27;45345;-72
2021/12/17 05:53:25;;;;;;;;;2.00;1.75;;;;;-146.25;100.00;57879.81;5077398;27;45546;-73
2021/12/17 05:55:52;;;;;;;;;1.75;1.00;;;;;-146.25;100.00;57879.81;5076931;27;45259;-72
2021/12/17 05:58:18;;;;;;;;;1.00;1.00;;;;;-146.25;100.00;57879.81;5075309;27;45959;-72
2021/12/17 06:00:45;;;;;;;;;3.25;3.25;;;;;-146.25;100.00;57879.81;5075774;28;45499;-74
2021/12/17 06:03:11;;;;;;;;;2.00;2.00;;;;;-146.25;100.00;57879.81;5075675;27;45510;-72
2021/12/17 06:05:36;;;;;;;;;5.00;4.00;;;;;-146.25;100.00;57879.81;5075442;27;45895;-72
2021/12/17 06:08:03;;;;;;;;;4.00;2.00;;;;;-146.25;100.00;57879.81;5075391;27;46168;-72
2021/12/17 06:10:28;;;;;;;;;3.00;2.00;;;;;-146.25;100.00;57879.81;5075306;27;45419;-72
2021/12/17 06:12:54;;;;;;;;;5.00;4.00;;;;;-146.25;100.00;57879.81;5075478;27;45354;-72
2021/12/17 06:15:21;;;;;;;;;24.00;22.25;;;;;-146.25;100.00;57879.81;5075307;28;45527;-78
2021/12/17 06:17:48;;;;;;;;;10.00;9.25;;;;;-146.25;100.00;57879.81;5075590;27;46413;-73
2021/12/17 06:20:16;;;;;;;;;11.00;8.00;;;;;-146.25;100.00;57879.81;5075337;27;45512;-72
2021/12/17 06:22:42;;;;;;;;;15.25;13.00;;;;;-146.25;100.00;57879.81;5075227;27;45572;-72
2021/12/17 06:25:09;;;;;;;;;21.00;19.00;;;;;-146.25;100.00;57879.81;5075224;28;45431;-71
2021/12/17 06:27:35;;;;;;;;;21.75;20.00;;;;;-146.25;100.00;57879.81;5072371;28;46024;-72
2021/12/17 06:30:03;;;;;;;;;45.00;40.00;;;;;-146.25;100.00;57879.81;5075009;27;45610;-77
2021/12/17 06:32:29;;;;;;;;;55.00;45.25;;;;;-146.25;100.00;57879.81;5074990;27;45370;-72
2021/12/17 06:34:55;;;;;;;;;66.75;53.50;;;;;-146.25;100.00;57879.81;5075162;28;45437;-76
2021/12/17 06:37:21;;;;;;;;;46.50;39.50;;;;;-146.25;100.00;57879.81;5075211;27;45999;-77
2021/12/17 06:39:47;;;;;;;;;22.00;20.00;;;;;-146.25;100.00;57879.81;5078902;27;45263;-72
2021/12/17 06:42:14;;;;;;;;;33.25;30.00;;;;;-146.25;100.00;57879.81;5078454;27;45440;-72
2021/12/17 06:44:41;;;;;;;;;37.75;35.25;;;;;-146.25;100.00;57879.81;5078815;27;45477;-71
2021/12/17 06:47:24;;;;;;;;;37.75;31.75;;;;;-146.25;100.00;57879.81;5076947;28;45694;-72
2021/12/17 06:49:57;;;;;;;;;34.00;24.50;;;;;-146.25;100.00;57879.81;5077682;28;45408;-72
2021/12/17 06:55:28;;;;;;;;;18.00;16.75;;;;;-146.25;100.00;57879.81;5077347;28;45964;-72
2021/12/17 07:11:11;;;;;;;;;58.00;46.50;;;;;-146.25;100.00;57879.81;5076113;28;45820;-72
2021/12/17 07:21:54;;;;;;;;;35.00;27.00;;;;;-146.25;100.00;57879.81;5079296;28;45380;-72
2021/12/17 07:35:27;;;;;;;;;99.67;74.00;;;;;-146.25;100.00;57879.81;5079562;28;45416;-72
2021/12/17 07:40:37;;;;;;;;;51.75;43.75;;;;;-146.25;100.00;57879.81;5078731;28;45911;-73
2021/12/17 07:43:10;;;;;;;;;60.50;50.00;;;;;-146.25;100.00;57879.81;5078811;27;45242;-73
2021/12/17 07:45:36;;;;;;;;;179.50;158.50;;;;;-146.25;100.00;57879.81;5079511;27;45417;-73
2021/12/17 07:48:01;;;;;;;;;21.25;21.25;;;;;-146.25;100.00;57879.81;5079366;27;45390;-73
2021/12/17 07:50:27;;;;;;;;;62.50;49.25;;;;;-146.25;100.00;57879.81;5077691;28;46151;-73
2021/12/17 07:52:53;;;;;;;;;63.00;53.00;;;;;-146.25;100.00;57879.81;5074887;27;45520;-73
2021/12/17 07:55:19;;;;;;;;;23.00;21.00;;;;;-146.25;100.00;57879.81;5073740;28;45377;-75
2021/12/17 07:57:45;;;;;;;;;28.50;28.00;;;;;-146.25;100.00;57879.81;5078272;27;45428;-73
2021/12/17 08:00:11;;;;;;;;;69.75;57.75;;;;;-146.25;100.00;57879.81;5078350;27;45406;-73
2021/12/17 08:02:36;;;;;;;;;43.50;41.00;;;;;-146.25;100.00;57879.81;5077663;27;45496;-72
2021/12/17 08:05:02;;;;;;;;;53.25;44.75;;;;;-146.25;100.00;57879.81;5078180;28;45457;-72
2021/12/17 08:07:27;;;;;;;;;50.25;43.50;;;;;-146.25;100.00;57879.81;5078572;28;45784;-72
2021/12/17 08:09:53;;;;;;;;;70.75;56.25;;;;;-146.25;100.00;57879.81;5078145;27;45401;-72
2021/12/17 08:12:19;;;;;;;;;39.25;35.25;;;;;-146.25;100.00;57879.81;5078310;27;45310;-74
2021/12/17 08:14:44;;;;;;;;;28.25;24.25;;;;;-146.25;100.00;57879.81;5078219;27;45401;-71
2021/12/17 08:25:13;;;;;;;;;61.50;50.00;;;;;-146.25;100.00;57879.81;5078031;28;45496;-71
2021/12/17 08:32:34;;;;;;;;;48.00;41.75;;;;;-146.25;100.00;57879.81;5077480;27;45416;-72
2021/12/17 08:35:00;;;;;;;;;51.25;39.75;;;;;-146.25;100.00;57879.81;5077482;27;45491;-73
2021/12/17 08:37:26;;;;;;;;;70.00;55.00;;;;;-146.25;100.00;57879.81;5076736;28;45485;-73
2021/12/17 08:39:51;;;;;;;;;10.75;9.00;;;;;-146.25;100.00;57879.81;5075488;27;45901;-73
2021/12/17 08:42:17;;;;;;;;;57.25;47.50;;;;;-146.25;100.00;57879.81;5076870;28;45555;-73
2021/12/17 08:44:43;;;;;;;;;52.25;45.50;;;;;-146.25;100.00;57879.81;5077240;28;45294;-73
2021/12/17 08:47:10;;;;;;;;;36.00;32.75;;;;;-146.25;100.00;57879.81;5076518;27;45628;-72
2021/12/17 08:49:39;;;;;;;;;24.75;19.75;;;;;-146.25;100.00;57879.81;5076915;27;45472;-72
2021/12/17 08:52:06;;;;;;;;;7.25;7.00;;;;;-146.25;100.00;57879.81;5075323;28;45592;-72
2021/12/17 08:54:31;;;;;;;;;6.00;5.00;;;;;-146.25;100.00;57879.81;5076453;28;45543;-71
2021/12/17 08:56:57;;;;;;;;;11.00;10.00;;;;;-146.25;100.00;57879.81;5076444;27;45437;-72
2021/12/17 08:59:22;;;;;;;;;21.00;19.00;;;;;-146.25;100.00;57879.81;5076567;27;45468;-73
2021/12/17 09:01:48;;;;;;;;;40.75;37.50;;;;;-146.25;100.00;57879.81;5076462;28;45389;-74
2021/12/17 09:04:15;;;;;;;;;72.75;57.00;;;;;-146.25;100.00;57879.81;5075927;28;45380;-74
2021/12/17 09:06:40;;;;;;;;;90.00;69.33;;;;;-146.25;100.00;57879.81;5076522;28;45450;-73
2021/12/17 09:09:06;;;;;;;;;72.25;57.50;;;;;-146.25;100.00;57879.81;5074432;28;47633;-74
2021/12/17 09:11:33;;;;;;;;;71.00;58.25;;;;;-146.25;100.00;57879.81;5076380;28;45388;-74
2021/12/17 09:14:01;;;;;;;;;75.33;60.33;;;;;-146.25;100.00;57879.81;5076566;28;45466;-74
2021/12/17 09:16:27;;;;;;;;;73.50;58.25;;;;;-146.25;100.00;57879.81;5073624;28;45380;-73
2021/12/17 09:18:54;;;;;;;;;73.75;58.00;;;;;-146.25;100.00;57879.81;5076761;28;45282;-73
2021/12/17 09:21:20;;;;;;;;;72.25;58.50;;;;;-146.25;100.00;57879.81;5076389;28;45577;-74
2021/12/17 09:23:46;;;;;;;;;89.67;72.00;;;;;-146.25;100.00;57879.81;5074406;28;45582;-73
2021/12/17 09:26:14;;;;;;;;;84.33;69.33;;;;;-146.25;100.00;57879.81;5076454;28;45570;-73
2021/12/17 09:28:40;;;;;;;;;84.33;65.33;;;;;-146.25;100.00;57879.81;5075977;27;45509;-73
2021/12/17 09:31:11;;;;;;;;;81.33;68.67;;;;;-146.25;100.00;57879.81;5076993;27;45476;-74
2021/12/17 09:33:41;;;;;;;;;75.75;64.50;;;;;-146.25;100.00;57879.81;5076107;27;45490;-74
2021/12/17 09:36:07;;;;;;;;;81.00;70.67;;;;;-146.25;100.00;57879.81;5073651;28;45426;-73
2021/12/17 09:38:33;;;;;;;;;57.25;45.50;;;;;-146.25;100.00;57879.81;5075697;28;45515;-73
2021/12/17 09:41:00;;;;;;;;;76.00;69.00;;;;;-146.25;100.00;57879.81;5075807;28;45303;-74
2021/12/17 09:43:27;;;;;;;;;73.00;62.00;;;;;-146.25;100.00;57879.81;5076195;28;45453;-74
2021/12/17 09:45:52;;;;;;;;;58.75;46.75;;;;;-146.25;100.00;57879.81;5075564;28;45423;-73
2021/12/17 09:48:21;;;;;;;;;41.25;36.25;;;;;-146.25;100.00;57879.81;5075610;27;46163;-73
2021/12/17 09:50:47;;;;;;;;;35.50;33.75;;;;;-146.25;100.00;57879.81;5070835;28;45423;-73
2021/12/17 09:53:13;;;;;;;;;31.50;29.00;;;;;-146.25;100.00;57879.81;5075316;28;45414;-73
2021/12/17 09:55:38;;;;;;;;;103.33;95.00;;;;;-146.25;100.00;57879.81;5075472;28;45403;-73
2021/12/17 09:58:04;;;;;;;;;7.67;7.00;;;;;-146.25;100.00;57879.81;5075816;27;45450;-74
2021/12/17 10:00:30;;;;;;;;;4.33;3.00;;;;;-146.25;100.00;57879.81;5075834;28;45449;-74
2021/12/17 10:02:56;;;;;;;;;116.67;111.33;;;;;-146.25;100.00;57879.81;5077996;28;45595;-74
2021/12/17 10:05:26;;;;;;;;;3.00;3.00;;;;;-146.25;100.00;57879.81;5076366;28;45444;-73
2021/12/17 10:07:54;;;;;;;;;3.00;2.67;;;;;-146.25;100.00;57879.81;5075132;28;45557;-76
2021/12/17 10:10:19;;;;;;;;;32.00;30.50;;;;;-146.25;100.00;57879.81;5076031;27;45555;-80
2021/12/17 10:12:46;;;;;;;;;48.00;38.75;;;;;-146.25;100.00;57879.81;5077373;27;45627;-77
2021/12/17 10:15:16;;;;;;;;;11.67;11.33;;;;;-146.25;100.00;57879.81;5080018;28;45488;-77
2021/12/17 10:17:52;;;;;;;;;29.25;28.25;;;;;-146.25;100.00;57879.81;5080095;28;46161;-77
2021/12/17 10:20:17;;;;;;;;;6.67;6.33;;;;;-146.25;100.00;57879.81;5080822;28;45393;-77
2021/12/17 10:22:54;;;;;;;;;19.00;18.00;;;;;-146.25;100.00;57879.81;5080808;27;45319;-77
2021/12/17 10:25:21;;;;;;;;;15.00;14.33;;;;;-146.25;100.00;57879.81;5079654;28;45655;-77
2021/12/17 10:27:47;;;;;;;;;6.00;6.00;;;;;-146.25;100.00;57879.81;5079917;28;45752;-76
2021/12/17 10:30:19;;;;;;;;;6.00;5.00;;;;;-146.25;100.00;57879.81;5079695;27;45383;-75
2021/12/17 10:32:47;;;;;;;;;4.33;4.33;;;;;-146.25;100.00;57879.81;5079771;27;45410;-76
2021/12/17 10:35:19;;;;;;;;;6.00;6.00;;;;;-146.25;100.00;57879.81;5079750;27;45631;-76
2021/12/17 10:37:57;;;;;;;;;7.00;7.00;;;;;-146.25;100.00;57879.81;5079562;27;46236;-76
2021/12/17 10:40:34;;;;;;;;;12.67;12.67;;;;;-146.25;100.00;57879.81;5075892;28;45591;-72
2021/12/17 10:43:27;;;;;;;;;19.67;18.33;;;;;-146.25;100.00;57879.81;5073783;28;45489;-73
2021/12/17 10:46:02;;;;;;;;;14.67;13.67;;;;;-146.25;100.00;57879.81;5076140;28;45520;-72
2021/12/17 10:48:50;;;;;;;;;24.00;22.67;;;;;-146.25;100.00;57879.81;5079289;27;46025;-78
2021/12/17 10:51:29;;;;;;;;;13.33;12.00;;;;;-146.25;100.00;57879.81;5079012;28;45526;-75
2021/12/17 10:54:02;;;;;;;;;26.67;23.33;;;;;-146.25;100.00;57879.81;5079575;27;45492;-74
2021/12/17 10:56:32;;;;;;;;;21.00;18.00;;;;;-146.25;100.00;57879.81;5079682;27;45463;-71
2021/12/17 10:59:04;;;;;;;;;14.33;12.33;;;;;-146.25;100.00;57879.81;5076558;28;45586;-76
2021/12/17 11:01:41;;;;;;;;;22.50;22.00;;;;;-146.25;100.00;57879.81;5079064;28;45485;-75
2021/12/17 11:04:14;;;;;;;;;42.25;35.25;;;;;-146.25;100.00;57879.81;5077658;28;46608;-76
2021/12/17 11:07:00;;;;;;;;;19.25;18.75;;;;;-146.25;100.00;57879.81;5092700;27;45453;-77
2021/12/17 11:09:50;;;;;;;;;8.33;7.00;;;;;-146.25;100.00;57879.81;5076965;28;46354;-75
2021/12/17 11:12:39;;;;;;;;;14.00;12.67;;;;;-146.25;100.00;57879.81;5079381;28;45228;-76
2021/12/17 11:15:12;;;;;;;;;9.00;8.00;;;;;-146.25;100.00;57879.81;5079874;27;45412;-77
2021/12/17 11:17:41;;;;;;;;;10.33;9.33;;;;;-146.25;100.00;57879.81;5080392;27;45543;-76
2021/12/17 11:20:27;;;;;;;;;15.00;14.67;;;;;-146.25;100.00;57879.81;5079768;28;46040;-77
2021/12/17 11:22:55;;;;;;;;;12.00;11.00;;;;;-146.25;100.00;57879.81;5078406;28;45644;-77
2021/12/17 11:25:22;;;;;;;;;18.00;18.00;;;;;-146.25;100.00;57879.81;5079548;28;45518;-77
2021/12/17 11:27:49;;;;;;;;;16.00;15.33;;;;;-146.25;100.00;57879.81;5079936;27;45357;-77
2021/12/17 11:30:25;;;;;;;;;8.00;8.00;;;;;-146.25;100.00;57879.81;5079744;27;45433;-77
2021/12/17 11:32:52;;;;;;;;;17.75;16.50;;;;;-146.25;100.00;57879.81;5079525;28;45640;-77
2021/12/17 11:35:26;;;;;;;;;19.00;18.00;;;;;-146.25;100.00;57879.81;5079872;27;45289;-77
2021/12/17 11:37:56;;;;;;;;;8.67;8.00;;;;;-146.25;100.00;57879.81;5079932;27;45396;-77
2021/12/17 11:40:36;;;;;;;;;13.00;12.67;;;;;-146.25;100.00;57879.81;5079450;27;45309;-77
2021/12/17 11:43:16;;;;;;;;;42.75;37.75;;;;;-146.25;100.00;57879.81;5079444;27;45510;-77
2021/12/17 11:45:44;;;;;;;;;54.75;45.25;;;;;-146.25;100.00;57879.81;5079468;28;45495;-77
2021/12/17 11:48:11;;;;;;;;;108.33;93.67;;;;;-146.25;100.00;57879.81;5079608;27;45280;-77
2021/12/17 11:50:37;;;;;;;;;75.00;62.25;;;;;-146.25;100.00;57879.81;5079496;27;46169;-77
2021/12/17 11:53:40;;;;;;;;;64.75;50.00;;;;;-146.25;100.00;57879.81;5079244;28;45254;-72
2021/12/17 11:56:06;;;;;;;;;28.75;26.00;;;;;-146.25;100.00;57879.81;5047352;28;45467;-73
2021/12/17 11:58:51;;;;;;;;;17.50;15.25;;;;;-146.25;100.00;57879.81;5079834;27;45916;-73
2021/12/17 12:01:44;;;;;;;;;13.00;12.00;;;;;-146.25;100.00;57879.81;5079223;27;45437;-77
2021/12/17 12:04:45;;;;;;;;;30.25;29.50;;;;;-146.25;100.00;57879.81;5078950;28;45187;-77
2021/12/17 12:07:17;;;;;;;;;16.50;14.50;;;;;-146.25;100.00;57879.81;5073358;28;45290;-77
2021/12/17 12:09:56;;;;;;;;;12.33;11.33;;;;;-146.25;100.00;57879.81;5079374;27;45397;-72
2021/12/17 12:12:22;;;;;;;;;11.33;9.00;;;;;-146.25;100.00;57879.81;5078815;27;45550;-78
2021/12/17 12:14:48;;;;;;;;;9.00;8.67;;;;;-146.25;100.00;57879.81;5079014;27;45472;-72
2021/12/17 12:17:14;;;;;;;;;5.00;5.00;;;;;-146.25;100.00;57879.81;5078916;28;45317;-76
2021/12/17 12:19:49;;;;;;;;;6.00;5.67;;;;;-146.25;100.00;57879.81;5079317;28;45618;-77
2021/12/17 12:22:29;;;;;;;;;4.00;3.00;;;;;-146.25;100.00;57879.81;5078856;28;45486;-77
2021/12/17 12:25:29;;;;;;;;;2.00;1.67;;;;;-146.25;100.00;57879.81;5078731;27;45333;-77
2021/12/17 12:27:55;;;;;;;;;27.75;24.25;;;;;-146.25;100.00;57879.81;5078562;27;45551;-74
2021/12/17 12:30:38;;;;;;;;;20.75;20.00;;;;;-146.25;100.00;57879.81;5094681;27;45456;-77
2021/12/17 12:33:05;;;;;;;;;8.75;8.75;;;;;-146.25;100.00;57879.81;5078933;27;46156;-77
2021/12/17 12:35:32;;;;;;;;;6.33;6.33;;;;;-146.25;100.00;57879.81;5077993;27;45448;-73
2021/12/17 12:38:20;;;;;;;;;8.00;8.00;;;;;-146.25;100.00;57879.81;5078771;27;45435;-73
2021/12/17 12:40:55;;;;;;;;;13.00;12.75;;;;;-146.25;100.00;57879.81;5078865;27;45462;-77
2021/12/17 12:43:46;;;;;;;;;32.75;31.50;;;;;-146.25;100.00;57879.81;5078108;27;45456;-77
2021/12/17 12:46:12;;;;;;;;;11.00;11.00;;;;;-146.25;100.00;57879.81;5078498;28;45342;-77
2021/12/17 12:48:38;;;;;;;;;10.67;9.33;;;;;-146.25;100.00;57879.81;5078629;27;45412;-77
2021/12/17 12:51:22;;;;;;;;;6.67;6.67;;;;;-146.25;100.00;57879.81;5078952;27;45432;-77
2021/12/17 12:54:04;;;;;;;;;9.00;9.00;;;;;-146.25;100.00;57879.81;5078108;27;46275;-77
2021/12/17 12:56:30;;;;;;;;;14.00;12.50;;;;;-146.25;100.00;57879.81;5078541;28;45303;-77
2021/12/17 12:58:56;;;;;;;;;6.00;4.00;;;;;-146.25;100.00;57879.81;5094064;28;45369;-74
2021/12/17 13:01:22;;;;;;;;;22.00;19.50;;;;;-146.25;100.00;57879.81;5098095;28;45571;-77
2021/12/17 13:03:48;;;;;;;;;14.00;12.00;;;;;-146.25;100.00;57879.81;5078163;28;45383;-77
2021/12/17 13:06:17;;;;;;;;;22.75;22.25;;;;;-146.25;100.00;57879.81;5078258;27;45468;-73
2021/12/17 13:08:50;;;;;;;;;12.00;11.75;;;;;-146.25;100.00;57879.81;5078325;27;45222;-77
2021/12/17 13:11:18;;;;;;;;;10.33;9.67;;;;;-146.25;100.00;57879.81;5078445;28;45287;-77
2021/12/17 13:13:51;;;;;;;;;23.25;22.00;;;;;-146.25;100.00;57879.81;5093612;27;45362;-77
2021/12/17 13:24:26;;;;;;;;;14.50;13.25;;;;;-146.25;100.00;57879.81;5077828;27;45886;-77
2021/12/17 13:27:09;;;;;;;;;7.50;7.50;;;;;-146.25;100.00;57879.81;5078450;27;45514;-76
2021/12/17 13:29:43;;;;;;;;;8.25;8.00;;;;;-146.25;100.00;57879.81;5078262;27;45504;-73
2021/12/17 13:32:17;;;;;;;;;2.00;2.00;;;;;-146.25;100.00;57879.81;5077895;27;45446;-72
2021/12/17 13:34:55;;;;;;;;;10.67;9.33;;;;;-146.25;100.00;57879.81;5077532;27;45395;-72
2021/12/17 13:37:26;;;;;;;;;14.25;12.25;;;;;-146.25;100.00;57879.81;5077647;27;45172;-72
2021/12/17 13:40:02;;;;;;;;;11.00;10.33;;;;;-146.25;100.00;57879.81;5077648;27;45483;-77
2021/12/17 13:42:32;;;;;;;;;7.67;6.00;;;;;-146.25;100.00;57879.81;5078037;27;45228;-72
2021/12/17 13:45:00;;;;;;;;;7.33;7.33;;;;;-146.25;100.00;57879.81;5077519;27;46038;-72
2021/12/17 13:47:35;;;;;;;;;9.00;8.00;;;;;-146.25;100.00;57879.81;5077508;27;46057;-77
2021/12/17 13:50:06;;;;;;;;;10.00;10.00;;;;;-146.25;100.00;57879.81;5077759;27;45329;-77
2021/12/17 13:52:35;;;;;;;;;9.67;9.00;;;;;-146.25;100.00;57879.81;5077662;27;45404;-77
2021/12/17 13:55:05;;;;;;;;;10.00;7.33;;;;;-146.25;100.00;57879.81;5077278;27;45236;-77
2021/12/17 13:57:32;;;;;;;;;9.00;8.00;;;;;-146.25;100.00;57879.81;5077417;27;45490;-77
2021/12/17 14:00:17;;;;;;;;;9.00;8.00;;;;;-146.25;100.00;57879.81;5077392;27;45525;-77
2021/12/17 14:02:45;;;;;;;;;5.67;5.00;;;;;-146.25;100.00;57879.81;5077426;27;45524;-72
2021/12/17 14:05:14;;;;;;;;;7.00;7.00;;;;;-146.25;100.00;57879.81;5077116;27;45490;-72
2021/12/17 14:07:40;;;;;;;;;3.33;3.33;;;;;-146.25;100.00;57879.81;5077439;27;45456;-73
2021/12/17 14:10:16;;;;;;;;;3.33;2.67;;;;;-146.25;100.00;57879.81;5077538;28;45315;-77
2021/12/17 14:12:43;;;;;;;;;2.67;2.00;;;;;-146.25;100.00;57879.81;5077635;28;45525;-77
2021/12/17 14:15:17;;;;;;;;;1.00;1.00;;;;;-146.25;100.00;57879.81;5077328;27;45556;-77